Taitung Airport
RCFN : now visible

Airfield :











YOU CAN JOIN US ON...

 
LOGIN :

Register | Disclaimer

   EN    FR    IT 

 









Legend :    VFR   Marginal VFR   IFR   Intensive IFR   Very Intensive IFR
Visi :
Ceiling :
>= 8 km
>= 3000ft
5 to 8 km
1000 to 3000 ft
1500m to 5 km
500 to 1000 ft
800 to 1500m
200 to 500 ft
< 800m
< 200 ft
Symbols :   Thunderstorms  Fog  Heavy snow  Heavy precipitations  Wind > 20 kt






- Airport Elevation : 143 ft
- IATA code : TTT


RCFN - Taitung

EXPIRED METARs :
  • 071200Z 36006KT 280V030 9999 VCSH FEW020 BKN030 20/17 Q1015 NOSIG RMK A3000
  • 071130Z 36007KT 310V050 9999 VCSH FEW020 BKN035 20/17 Q1015 NOSIG RMK A2999

TAF TAF RCFN
Valid from the 07 at 12:00 until the 08 at 12:00 UTC


071100Z 0712/0812 36005KT 9999 FEW016 BKN032
TEMPO 0802/0807 08012KT
TEMPO 0807/0812 05010KT FEW010 BKN018



MET'MAP, your aeronautical weather chart ! - Copyright ORBIFLY December 2007 - Disclaimer

ORBIFLY MET'MAP TEAM :

Programming & Development : Alexandra Zaïnal
Concept & original design : Baudouin d'Aumeries
Assistance for programming : Marc-Olivier Méhu
Technical & hardware support : Manuel Goepfert

Contact : metmap@orbifly.com




SOURCES & CREDITS :

   NOAA       Earth
Advisory